createdAt,value
2016-12-09T00:01:29.270Z,1.52
2016-12-09T00:03:01.203Z,1.45
2016-12-09T00:04:33.038Z,1.49
2016-12-09T00:05:45.367Z,1.45
2016-12-09T00:07:17.606Z,1.4
2016-12-09T00:08:49.477Z,1.39
2016-12-09T00:10:21.943Z,1.4
2016-12-09T00:11:53.230Z,1.4
2016-12-09T00:13:24.885Z,1.27
2016-12-09T00:14:55.747Z,1.25
2016-12-09T00:16:26.409Z,1.34
2016-12-09T00:17:59.499Z,1.39
2016-12-09T00:19:33.910Z,1.46
2016-12-09T00:20:45.507Z,1.38
2016-12-09T00:22:16.882Z,1.28
2016-12-09T00:23:47.985Z,1.25
2016-12-09T00:25:19.402Z,1.16
2016-12-09T00:26:51.301Z,1.3
2016-12-09T00:28:23.025Z,1.32
2016-12-09T00:29:48.861Z,1.31
2016-12-09T00:31:01.776Z,1.22
2016-12-09T00:32:33.416Z,1.27
2016-12-09T00:34:05.852Z,1.28
2016-12-09T00:35:37.679Z,1.21
2016-12-09T00:37:09.070Z,1.28
2016-12-09T00:38:21.434Z,1.24
2016-12-09T00:39:52.826Z,1.22
2016-12-09T00:41:24.492Z,1.25
2016-12-09T00:42:56.885Z,1.18
2016-12-09T00:44:28.316Z,1.13
2016-12-09T00:45:59.269Z,1.07
2016-12-09T00:47:31.043Z,1.18
2016-12-09T00:49:03.178Z,1.12
2016-12-09T00:50:35.620Z,1.2
2016-12-09T00:52:07.898Z,1.28
2016-12-09T00:53:41.122Z,1.31
2016-12-09T00:55:13.083Z,1.25
2016-12-09T00:56:25.688Z,1.21
2016-12-09T00:57:57.837Z,1.16
2016-12-09T00:59:29.480Z,1.18
2016-12-09T01:01:01.653Z,1.04
2016-12-09T01:02:32.963Z,0.91
2016-12-09T01:04:09.480Z,0.95
2016-12-09T01:06:08.108Z,1
2016-12-09T01:07:44.470Z,0.96
2016-12-09T01:09:13.665Z,1.04
2016-12-09T01:10:44.735Z,1.18
2016-12-09T01:12:16.176Z,1.13
2016-12-09T01:13:28.305Z,1.04
2016-12-09T01:14:59.485Z,1.04
2016-12-09T01:18:29.084Z,1.13
2016-12-09T01:19:41.541Z,1.12
2016-12-09T01:21:12.522Z,1.16
2016-12-09T01:22:44.310Z,1.27
2016-12-09T01:24:15.472Z,1.16
2016-12-09T01:25:46.918Z,1.18
2016-12-09T01:27:17.801Z,1.14
2016-12-09T01:28:48.649Z,1.14
2016-12-09T01:30:00.404Z,1.09
2016-12-09T01:31:31.998Z,1.21
2016-12-09T01:33:03.714Z,1.21
2016-12-09T01:34:34.661Z,1.16
2016-12-09T01:36:05.597Z,1.25
2016-12-09T01:37:37.017Z,1.22
2016-12-09T01:39:08.342Z,1.34
2016-12-09T01:40:20.107Z,1.3
2016-12-09T01:41:51.049Z,1.31
2016-12-09T01:43:22.888Z,1.3
2016-12-09T01:44:53.871Z,1.31
2016-12-09T01:46:24.846Z,1.18
2016-12-09T01:47:55.811Z,1.18
2016-12-09T01:49:07.714Z,1.18
2016-12-09T01:50:38.623Z,1.25
2016-12-09T01:52:09.596Z,1.22
2016-12-09T01:53:40.875Z,1.28
2016-12-09T01:55:12.308Z,1.34
2016-12-09T01:56:42.994Z,1.34
2016-12-09T01:57:54.665Z,1.38
2016-12-09T01:59:25.608Z,1.38
2016-12-09T02:00:56.997Z,1.46
2016-12-09T02:02:28.275Z,1.38
2016-12-09T02:03:59.124Z,1.43
2016-12-09T02:05:30.066Z,1.48
2016-12-09T02:06:42.068Z,1.46
2016-12-09T02:08:13.005Z,1.48
2016-12-09T02:09:44.098Z,1.48
2016-12-09T02:11:14.973Z,1.5
2016-12-09T02:12:46.217Z,1.56
2016-12-09T02:14:17.168Z,1.52
2016-12-09T02:15:29.197Z,1.56
2016-12-09T02:16:54.880Z,1.53
2016-12-09T02:18:27.413Z,1.58
2016-12-09T02:19:58.611Z,1.64
2016-12-09T02:21:30.044Z,1.71
2016-12-09T02:22:42.479Z,1.71
2016-12-09T02:24:13.577Z,1.7
2016-12-09T02:25:45.011Z,1.67
2016-12-09T02:27:16.443Z,1.67
2016-12-09T02:28:47.472Z,1.68
2016-12-09T02:30:18.825Z,1.68
2016-12-09T02:31:50.146Z,1.71
2016-12-09T02:33:02.624Z,1.81
2016-12-09T02:34:33.535Z,1.85
2016-12-09T02:36:05.131Z,1.82
2016-12-09T02:37:36.368Z,1.7
2016-12-09T02:39:07.261Z,1.66
2016-12-09T02:40:38.514Z,1.76
2016-12-09T02:42:09.664Z,1.7
2016-12-09T02:43:22.064Z,1.84
2016-12-09T02:44:52.959Z,1.92
2016-12-09T02:46:23.875Z,1.81
2016-12-09T02:47:55.449Z,1.86
2016-12-09T02:49:29.577Z,1.81
2016-12-09T02:51:00.850Z,1.97
2016-12-09T02:52:26.847Z,1.84
2016-12-09T02:53:38.534Z,1.82
2016-12-09T02:55:04.647Z,1.84
2016-12-09T02:56:16.092Z,1.86
2016-12-09T02:57:47.363Z,1.97
2016-12-09T02:59:18.693Z,2.15
2016-12-09T03:00:49.650Z,2.18
2016-12-09T03:02:20.874Z,2.05
2016-12-09T03:03:52.039Z,2.12
2016-12-09T03:05:03.750Z,2.19
2016-12-09T03:06:34.999Z,2.28
2016-12-09T03:08:05.940Z,2.25
2016-12-09T03:09:37.152Z,2.25
2016-12-09T03:10:48.819Z,2.25
2016-12-09T03:12:20.643Z,2.3
2016-12-09T03:13:47.133Z,2.39
2016-12-09T03:15:18.084Z,2.43
2016-12-09T03:16:30.408Z,2.39
2016-12-09T03:18:01.346Z,2.36
2016-12-09T03:19:32.248Z,2.44
2016-12-09T03:21:03.524Z,2.4
2016-12-09T03:22:35.183Z,2.39
2016-12-09T03:24:06.292Z,2.43
2016-12-09T03:25:18.258Z,2.47
2016-12-09T03:26:43.945Z,2.4
2016-12-09T03:28:14.846Z,2.34
2016-12-09T03:29:46.268Z,2.32
2016-12-09T03:30:58.214Z,2.39
2016-12-09T03:32:29.151Z,2.41
2016-12-09T03:34:00.277Z,2.4
2016-12-09T03:35:31.392Z,2.46
2016-12-09T03:37:03.377Z,2.55
2016-12-09T03:38:34.549Z,2.54
2016-12-09T03:40:05.651Z,2.51
2016-12-09T03:41:17.933Z,2.57
2016-12-09T03:42:49.183Z,2.52
2016-12-09T03:44:20.075Z,2.4
2016-12-09T03:45:51.207Z,2.55
2016-12-09T03:47:23.071Z,2.62
2016-12-09T03:48:53.973Z,2.55
2016-12-09T03:50:06.066Z,2.65
2016-12-09T03:51:32.038Z,2.73
2016-12-09T03:53:03.125Z,2.77
2016-12-09T03:54:34.408Z,2.85
2016-12-09T03:55:46.561Z,2.94
2016-12-09T03:57:17.778Z,3.05
2016-12-09T03:58:48.805Z,3.05
2016-12-09T04:00:20.312Z,3.11
2016-12-09T04:01:51.804Z,3.01
2016-12-09T04:03:23.048Z,3.01
2016-12-09T04:04:54.053Z,3.11
2016-12-09T04:06:06.044Z,3.16
2016-12-09T04:08:00.471Z,3.05
2016-12-09T04:09:12.211Z,3
2016-12-09T04:10:44.180Z,2.94
2016-12-09T04:12:16.296Z,3
2016-12-09T04:13:47.604Z,3.05
2016-12-09T04:15:20.463Z,3
2016-12-09T04:16:52.326Z,3
2016-12-09T04:18:04.218Z,2.98
2016-12-09T04:21:41.194Z,3
2016-12-09T04:23:07.784Z,3.05
2016-12-09T04:24:40.460Z,3.13
2016-12-09T04:26:07.836Z,3.24
2016-12-09T04:27:20.158Z,3.26
2016-12-09T04:28:51.612Z,3.24
2016-12-09T04:30:22.556Z,3.33
2016-12-09T04:31:53.465Z,3.24
2016-12-09T04:33:24.731Z,3.29
2016-12-09T04:34:56.180Z,3.31
2016-12-09T04:36:08.763Z,3.29
2016-12-09T04:38:11.207Z,3.36
2016-12-09T04:40:06.334Z,3.46
2016-12-09T04:41:40.560Z,3.52
2016-12-09T04:43:39.738Z,3.49
2016-12-09T04:44:53.987Z,3.59
2016-12-09T04:46:54.300Z,3.58
2016-12-09T04:48:32.655Z,3.55
2016-12-09T04:50:28.031Z,3.52
2016-12-09T04:52:04.372Z,3.61
2016-12-09T04:53:37.537Z,3.52
2016-12-09T04:55:08.962Z,3.73
2016-12-09T04:56:42.650Z,3.67
2016-12-09T04:58:13.173Z,3.66
2016-12-09T04:59:45.622Z,3.71
2016-12-09T05:01:20.315Z,3.61
2016-12-09T05:02:51.738Z,3.56
2016-12-09T05:04:24.187Z,3.58
2016-12-09T05:05:36.038Z,3.58
2016-12-09T05:07:07.238Z,3.46
2016-12-09T05:08:38.248Z,3.41
2016-12-09T05:10:09.145Z,3.37
2016-12-09T05:11:40.509Z,3.36
2016-12-09T05:13:12.989Z,3.27
2016-12-09T05:14:46.075Z,3.4
2016-12-09T05:16:17.282Z,3.3
2016-12-09T05:17:48.711Z,3.24
2016-12-09T05:19:00.485Z,3.33
2016-12-09T05:20:31.656Z,3.41
2016-12-09T05:22:02.956Z,3.5
2016-12-09T05:23:34.251Z,3.59
2016-12-09T05:25:05.223Z,3.5
2016-12-09T05:26:36.494Z,3.53
2016-12-09T05:27:48.319Z,3.7
2016-12-09T05:29:19.993Z,3.71
2016-12-09T05:30:51.474Z,3.82
2016-12-09T05:32:22.697Z,3.74
2016-12-09T05:33:54.281Z,3.77
2016-12-09T05:35:26.188Z,3.74
2016-12-09T05:36:57.300Z,3.77
2016-12-09T05:38:28.903Z,3.81
2016-12-09T05:39:41.793Z,3.7
2016-12-09T05:41:13.477Z,3.73
2016-12-09T05:42:44.799Z,3.73
2016-12-09T05:44:16.670Z,3.66
2016-12-09T05:45:48.252Z,3.71
2016-12-09T05:47:19.801Z,3.67
2016-12-09T05:48:52.272Z,3.66
2016-12-09T05:50:25.499Z,3.63
2016-12-09T05:51:57.245Z,3.68
2016-12-09T05:53:28.764Z,3.64
2016-12-09T05:55:02.791Z,3.59
2016-12-09T05:56:35.711Z,3.67
2016-12-09T05:58:09.249Z,3.7
2016-12-09T05:59:42.039Z,3.71
2016-12-09T06:01:12.920Z,3.76
2016-12-09T06:02:24.759Z,3.55
2016-12-09T06:03:55.666Z,3.58
2016-12-09T06:05:27.118Z,3.59
2016-12-09T06:06:58.092Z,3.58
2016-12-09T06:08:29.102Z,3.63
2016-12-09T06:10:00.332Z,3.59
2016-12-09T06:11:12.338Z,3.67
2016-12-09T06:12:43.302Z,3.58
2016-12-09T06:14:14.186Z,3.53
2016-12-09T06:15:45.047Z,3.5
2016-12-09T06:17:16.957Z,3.55
2016-12-09T06:18:48.003Z,3.52
2016-12-09T06:19:59.708Z,3.52
2016-12-09T06:21:30.751Z,3.43
2016-12-09T06:23:02.217Z,3.58
2016-12-09T06:24:33.137Z,3.55
2016-12-09T06:26:04.376Z,3.64
2016-12-09T06:27:35.757Z,3.66
2016-12-09T06:29:06.632Z,3.71
2016-12-09T06:30:18.642Z,3.73
2016-12-09T06:31:49.566Z,3.76
2016-12-09T06:33:20.465Z,3.76
2016-12-09T06:34:51.785Z,3.78
2016-12-09T06:36:22.859Z,3.84
2016-12-09T06:37:53.763Z,3.78
2016-12-09T06:39:06.016Z,3.78
2016-12-09T06:40:37.193Z,3.76
2016-12-09T06:42:08.260Z,3.76
2016-12-09T06:43:40.017Z,3.82
2016-12-09T06:45:11.277Z,3.74
2016-12-09T06:46:37.323Z,3.55
2016-12-09T06:47:49.097Z,3.68
2016-12-09T06:49:20.118Z,3.74
2016-12-09T06:50:51.240Z,3.68
2016-12-09T06:52:22.155Z,3.77
2016-12-09T06:53:33.854Z,3.76
2016-12-09T06:55:04.880Z,3.91
2016-12-09T06:56:36.064Z,3.78
2016-12-09T06:58:07.547Z,3.74
2016-12-09T06:59:38.438Z,3.85
2016-12-09T07:01:09.169Z,3.95
2016-12-09T07:02:20.976Z,3.99
2016-12-09T07:03:52.684Z,3.94
2016-12-09T07:05:23.716Z,3.81
2016-12-09T07:06:55.494Z,3.96
2016-12-09T07:08:26.487Z,3.95
2016-12-09T07:09:58.006Z,3.96
2016-12-09T07:11:28.882Z,4.03
2016-12-09T07:12:41.087Z,4.06
2016-12-09T07:14:12.337Z,4
2016-12-09T07:15:43.575Z,3.96
2016-12-09T07:17:14.814Z,3.95
2016-12-09T07:18:45.876Z,3.77
2016-12-09T07:20:17.702Z,3.74
2016-12-09T07:21:48.705Z,3.85
2016-12-09T07:23:00.453Z,3.82
2016-12-09T07:24:31.566Z,3.94
2016-12-09T07:26:04.964Z,3.99
2016-12-09T07:27:36.141Z,3.82
2016-12-09T07:29:02.413Z,3.85
2016-12-09T07:30:13.963Z,3.92
2016-12-09T07:31:45.339Z,3.91
2016-12-09T07:33:16.477Z,3.89
2016-12-09T07:34:47.711Z,3.89
2016-12-09T07:36:18.421Z,3.94
2016-12-09T07:37:50.155Z,3.92
2016-12-09T07:39:01.819Z,4.03
2016-12-09T07:40:33.487Z,4
2016-12-09T07:41:59.876Z,4.09
2016-12-09T07:43:30.715Z,4.12
2016-12-09T07:44:42.484Z,4.1
2016-12-09T07:46:13.656Z,4.12
2016-12-09T07:47:44.780Z,4.09
2016-12-09T07:49:16.085Z,4.13
2016-12-09T07:50:47.592Z,4.07
2016-12-09T07:52:18.701Z,4.07
2016-12-09T07:53:30.854Z,4.16
2016-12-09T07:55:01.729Z,4.18
2016-12-09T07:56:32.594Z,4.12
2016-12-09T07:58:04.137Z,4.1
2016-12-09T07:59:35.153Z,4.12
2016-12-09T08:01:06.355Z,4.18
2016-12-09T08:02:37.363Z,4.18
2016-12-09T08:03:49.502Z,4.22
2016-12-09T08:05:20.719Z,4.24
2016-12-09T08:06:51.765Z,4.36
2016-12-09T08:08:23.025Z,4.32
2016-12-09T08:09:54.543Z,4.24
2016-12-09T08:11:25.521Z,4.38
2016-12-09T08:12:37.173Z,4.36
2016-12-09T08:14:08.424Z,4.42
2016-12-09T08:15:40.066Z,4.43
2016-12-09T08:17:11.354Z,4.43
2016-12-09T08:18:42.229Z,4.48
2016-12-09T08:20:08.057Z,4.52
2016-12-09T08:21:20.012Z,4.56
2016-12-09T08:22:51.333Z,4.56
2016-12-09T08:24:22.820Z,4.48
2016-12-09T08:25:54.160Z,4.61
2016-12-09T08:27:25.265Z,4.66
2016-12-09T08:28:37.334Z,4.64
2016-12-09T08:30:08.504Z,4.52
2016-12-09T08:31:39.708Z,4.67
2016-12-09T08:33:10.577Z,4.61
2016-12-09T08:34:42.123Z,4.66
2016-12-09T08:36:13.564Z,4.74
2016-12-09T08:37:25.437Z,4.98
2016-12-09T08:38:56.426Z,5.02
2016-12-09T08:40:22.564Z,5.02
2016-12-09T08:41:55.272Z,4.98
2016-12-09T08:43:26.250Z,4.98
2016-12-09T08:44:38.656Z,5.05
2016-12-09T08:46:10.274Z,5.15
2016-12-09T08:47:41.991Z,5.26
2016-12-09T08:49:13.438Z,5.28
2016-12-09T08:50:44.437Z,5.25
2016-12-09T08:52:15.414Z,5.19
2016-12-09T08:53:46.844Z,5.12
2016-12-09T08:54:58.887Z,4.98
2016-12-09T08:56:32.200Z,5.12
2016-12-09T08:58:03.357Z,5.2
2016-12-09T08:59:34.886Z,5.22
2016-12-09T09:01:07.197Z,5.13
2016-12-09T09:02:38.334Z,5.12
2016-12-09T09:04:09.430Z,5.2
2016-12-09T09:05:40.672Z,5.36
2016-12-09T09:06:52.387Z,5.33
2016-12-09T09:08:23.609Z,5.26
2016-12-09T09:09:54.568Z,5.31
2016-12-09T09:11:25.555Z,5.4
2016-12-09T09:12:56.956Z,5.31
2016-12-09T09:14:08.472Z,5.28
2016-12-09T09:15:39.444Z,5.41
2016-12-09T09:17:10.826Z,5.46
2016-12-09T09:18:42.234Z,5.49
2016-12-09T09:20:13.370Z,5.41
2016-12-09T09:21:44.411Z,5.55
2016-12-09T09:22:56.175Z,5.51
2016-12-09T09:24:28.579Z,5.59
2016-12-09T09:25:59.728Z,5.58
2016-12-09T09:27:31.060Z,5.65
2016-12-09T09:29:01.986Z,5.59
2016-12-09T09:30:34.878Z,5.69
2016-12-09T09:32:05.868Z,5.77
2016-12-09T09:33:37.202Z,5.88
2016-12-09T09:35:09.055Z,5.7
2016-12-09T09:36:21.069Z,5.73
2016-12-09T09:37:52.069Z,5.7
2016-12-09T09:39:23.147Z,5.72
2016-12-09T09:40:54.026Z,5.76
2016-12-09T09:42:25.275Z,5.74
2016-12-09T09:43:37.083Z,5.74
2016-12-09T09:45:08.382Z,5.77
2016-12-09T09:46:39.471Z,5.73
2016-12-09T09:48:11.135Z,5.79
2016-12-09T09:49:42.449Z,5.8
2016-12-09T09:51:13.618Z,5.62
2016-12-09T09:52:44.903Z,5.69
2016-12-09T09:53:56.990Z,5.56
2016-12-09T09:55:28.125Z,5.54
2016-12-09T09:56:58.993Z,5.67
2016-12-09T09:58:29.978Z,5.54
2016-12-09T10:00:01.445Z,5.65
2016-12-09T10:01:32.574Z,5.72
2016-12-09T10:02:44.434Z,5.65
2016-12-09T10:04:15.442Z,5.73
2016-12-09T10:05:47.038Z,5.74
2016-12-09T10:07:18.213Z,5.79
2016-12-09T10:08:49.172Z,5.76
2016-12-09T10:10:20.905Z,5.73
2016-12-09T10:11:52.387Z,5.79
2016-12-09T10:13:04.465Z,5.74
2016-12-09T10:14:35.541Z,5.8
2016-12-09T10:16:06.566Z,5.77
2016-12-09T10:17:37.790Z,5.97
2016-12-09T10:19:08.732Z,5.92
2016-12-09T10:20:39.694Z,5.88
2016-12-09T10:21:51.411Z,5.73
2016-12-09T10:23:22.884Z,5.76
2016-12-09T10:24:54.040Z,5.8
2016-12-09T10:26:25.037Z,5.9
2016-12-09T10:27:58.217Z,5.79
2016-12-09T10:29:29.504Z,5.88
2016-12-09T10:31:00.556Z,5.83
2016-12-09T10:32:31.674Z,5.81
2016-12-09T10:33:43.399Z,5.84
2016-12-09T10:35:15.049Z,5.91
2016-12-09T10:37:13.401Z,6.02
2016-12-09T10:38:44.133Z,6.06
2016-12-09T10:39:55.879Z,5.9
2016-12-09T10:41:27.138Z,5.83
2016-12-09T10:42:58.087Z,5.84
2016-12-09T10:44:29.158Z,5.81
2016-12-09T10:46:00.385Z,5.91
2016-12-09T10:47:31.620Z,5.8
2016-12-09T10:48:43.424Z,5.77
2016-12-09T10:50:14.497Z,5.81
2016-12-09T10:51:45.370Z,5.9
2016-12-09T10:53:16.874Z,5.88
2016-12-09T10:54:47.794Z,5.92
2016-12-09T10:56:18.533Z,6.05
2016-12-09T10:57:30.207Z,6.12
2016-12-09T10:59:01.121Z,6.29
2016-12-09T11:00:32.243Z,6.25
2016-12-09T11:01:58.402Z,6.17
2016-12-09T11:03:09.923Z,6.16
2016-12-09T11:04:41.845Z,6.17
2016-12-09T11:06:12.876Z,6.25
2016-12-09T11:07:39.080Z,6.26
2016-12-09T11:08:51.003Z,6.35
2016-12-09T11:10:22.729Z,6.32
2016-12-09T11:11:54.277Z,6.26
2016-12-09T11:13:25.851Z,6.26
2016-12-09T11:14:57.497Z,6.32
2016-12-09T11:16:29.333Z,6.25
2016-12-09T11:18:00.671Z,6.32
2016-12-09T11:19:39.128Z,6.29
2016-12-09T11:21:11.125Z,6.43
2016-12-09T11:22:42.247Z,6.43
2016-12-09T11:23:54.264Z,6.39
2016-12-09T11:25:25.948Z,6.5
2016-12-09T11:26:57.392Z,6.56
2016-12-09T11:28:28.691Z,6.59
2016-12-09T11:30:00.309Z,6.67
2016-12-09T11:31:31.043Z,6.7
2016-12-09T11:32:42.992Z,6.68
2016-12-09T11:34:13.979Z,6.57
2016-12-09T11:35:44.909Z,6.62
2016-12-09T11:37:15.859Z,6.64
2016-12-09T11:38:47.344Z,6.6
2016-12-09T11:40:18.077Z,6.56
2016-12-09T11:41:29.758Z,6.65
2016-12-09T11:43:00.683Z,6.67
2016-12-09T11:44:32.005Z,6.64
2016-12-09T11:46:03.247Z,6.74
2016-12-09T11:47:34.791Z,6.64
2016-12-09T11:49:05.491Z,6.49
2016-12-09T11:50:17.339Z,6.53
2016-12-09T11:51:50.032Z,6.64
2016-12-09T11:53:21.000Z,6.62
2016-12-09T11:54:52.470Z,6.56
2016-12-09T11:56:23.766Z,6.64
2016-12-09T11:57:55.012Z,6.68
2016-12-09T11:59:28.246Z,6.78
2016-12-09T12:01:00.568Z,6.74
2016-12-09T12:02:32.713Z,6.7
2016-12-09T12:04:03.675Z,6.85
2016-12-09T12:05:16.262Z,6.82
2016-12-09T12:06:47.447Z,6.83
2016-12-09T12:08:18.374Z,6.8
2016-12-09T12:09:49.745Z,6.71
2016-12-09T12:11:21.937Z,6.9
2016-12-09T12:12:33.585Z,6.85
2016-12-09T12:14:05.528Z,6.75
2016-12-09T12:15:32.403Z,6.72
2016-12-09T12:17:04.129Z,6.83
2016-12-09T12:18:16.393Z,6.83
2016-12-09T12:19:48.300Z,6.8
2016-12-09T12:21:19.752Z,6.7
2016-12-09T12:22:50.799Z,6.65
2016-12-09T12:24:16.823Z,6.78
2016-12-09T12:25:28.352Z,6.65
2016-12-09T12:26:59.295Z,6.8
2016-12-09T12:28:30.507Z,6.62
2016-12-09T12:30:01.923Z,6.75
2016-12-09T12:31:32.741Z,6.82
2016-12-09T12:33:04.037Z,6.57
2016-12-09T12:34:16.246Z,6.64
2016-12-09T12:35:47.592Z,6.64
2016-12-09T12:37:18.672Z,6.74
2016-12-09T12:38:49.847Z,6.72
2016-12-09T12:40:21.143Z,6.77
2016-12-09T12:41:52.015Z,6.74
2016-12-09T12:43:03.746Z,6.71
2016-12-09T12:44:34.845Z,6.56
2016-12-09T12:46:06.406Z,6.62
2016-12-09T12:47:37.371Z,6.68
2016-12-09T12:49:08.497Z,6.64
2016-12-09T12:50:39.598Z,6.59
2016-12-09T12:51:51.648Z,6.53
2016-12-09T12:53:17.484Z,6.44
2016-12-09T12:54:49.866Z,6.52
2016-12-09T12:56:21.675Z,6.43
2016-12-09T12:57:52.613Z,6.41
2016-12-09T12:59:05.139Z,6.44
2016-12-09T13:00:36.267Z,6.5
2016-12-09T13:02:07.822Z,6.47
2016-12-09T13:03:38.825Z,6.52
2016-12-09T13:05:10.372Z,6.39
2016-12-09T13:06:42.653Z,6.47
2016-12-09T13:08:13.992Z,6.41
2016-12-09T13:09:45.002Z,6.38
2016-12-09T13:10:56.767Z,6.35
2016-12-09T13:12:28.014Z,6.26
2016-12-09T13:13:59.368Z,6.28
2016-12-09T13:15:30.708Z,6.36
2016-12-09T13:17:01.784Z,6.29
2016-12-09T13:18:32.836Z,6.31
2016-12-09T13:19:44.907Z,6.29
2016-12-09T13:22:10.992Z,6.36
2016-12-09T13:23:22.571Z,6.34
2016-12-09T13:24:53.590Z,6.38
2016-12-09T13:26:24.500Z,6.39
2016-12-09T13:27:55.416Z,6.44
2016-12-09T13:29:26.862Z,6.43
2016-12-09T13:31:00.315Z,6.56
2016-12-09T13:32:26.165Z,6.57
2016-12-09T13:33:37.963Z,6.67
2016-12-09T13:35:04.344Z,6.64
2016-12-09T13:36:17.473Z,6.74
2016-12-09T13:37:49.296Z,6.74
2016-12-09T13:39:03.474Z,6.54
2016-12-09T13:40:35.599Z,6.59
2016-12-09T13:42:06.793Z,6.6
2016-12-09T13:43:38.645Z,6.6
2016-12-09T13:45:10.187Z,6.67
2016-12-09T13:46:41.710Z,6.54
2016-12-09T13:48:13.150Z,6.6
2016-12-09T13:49:44.057Z,6.62
2016-12-09T13:50:56.619Z,6.56
2016-12-09T13:52:28.565Z,6.46
2016-12-09T13:54:00.327Z,6.65
2016-12-09T13:55:31.468Z,6.68
2016-12-09T13:57:02.588Z,6.62
2016-12-09T13:58:34.013Z,6.72
2016-12-09T14:00:06.630Z,6.67
2016-12-09T14:01:38.688Z,6.59
2016-12-09T14:03:10.428Z,6.49
2016-12-09T14:04:42.012Z,6.47
2016-12-09T14:05:54.316Z,6.49
2016-12-09T14:07:25.729Z,6.54
2016-12-09T14:08:57.403Z,6.57
2016-12-09T14:10:28.637Z,6.56
2016-12-09T14:11:59.730Z,6.78
2016-12-09T14:13:30.969Z,6.75
2016-12-09T14:15:03.460Z,6.71
2016-12-09T14:16:15.311Z,6.72
2016-12-09T14:17:46.410Z,6.77
2016-12-09T14:19:17.712Z,6.74
2016-12-09T14:20:48.899Z,6.71
2016-12-09T14:22:20.476Z,6.65
2016-12-09T14:23:51.523Z,6.64
2016-12-09T14:25:22.373Z,6.65
2016-12-09T14:26:55.391Z,6.75
2016-12-09T14:28:07.534Z,6.74
2016-12-09T14:29:39.472Z,6.8
2016-12-09T14:31:10.349Z,6.7
2016-12-09T14:32:41.330Z,6.71
2016-12-09T14:34:12.461Z,6.77
2016-12-09T14:35:43.562Z,6.74
2016-12-09T14:37:14.845Z,6.72
2016-12-09T14:38:26.493Z,6.85
2016-12-09T14:39:57.359Z,6.74
2016-12-09T14:41:29.419Z,6.64
2016-12-09T14:43:00.756Z,6.64
2016-12-09T14:44:32.035Z,6.77
2016-12-09T14:46:02.720Z,6.67
2016-12-09T14:47:14.687Z,6.72
2016-12-09T14:48:45.530Z,6.75
2016-12-09T14:50:16.594Z,6.74
2016-12-09T14:51:42.638Z,6.65
2016-12-09T14:52:54.178Z,6.7
2016-12-09T14:54:27.454Z,6.82
2016-12-09T14:55:58.742Z,6.74
2016-12-09T14:57:30.023Z,6.75
2016-12-09T14:59:01.155Z,6.74
2016-12-09T15:00:31.971Z,6.74
2016-12-09T15:02:05.523Z,6.72
2016-12-09T15:05:16.162Z,6.83
2016-12-09T15:06:44.090Z,6.71
2016-12-09T15:08:15.096Z,6.87
2016-12-09T15:09:26.891Z,6.89
2016-12-09T15:10:57.929Z,6.83
2016-12-09T15:12:28.857Z,6.95
2016-12-09T15:13:59.611Z,6.89
2016-12-09T15:15:11.604Z,7.01
2016-12-09T15:16:42.797Z,7.01
2016-12-09T15:18:15.147Z,7.11
2016-12-09T15:19:46.336Z,7.31
2016-12-09T15:21:42.802Z,7.58
2016-12-09T15:22:54.566Z,7.62
2016-12-09T15:24:25.708Z,7.41
2016-12-09T15:25:56.738Z,7.26
2016-12-09T15:27:27.747Z,7.26
2016-12-09T15:28:58.966Z,7.18
2016-12-09T15:30:10.979Z,7.01
2016-12-09T15:31:42.155Z,6.92
2016-12-09T15:33:08.250Z,6.97
2016-12-09T15:34:39.130Z,6.9
2016-12-09T15:35:50.994Z,6.83
2016-12-09T15:37:22.392Z,6.82
2016-12-09T15:38:53.344Z,6.87
2016-12-09T15:40:24.319Z,6.86
2016-12-09T15:41:56.827Z,6.86
2016-12-09T15:43:28.429Z,6.82
2016-12-09T15:44:59.497Z,6.83
2016-12-09T15:46:32.688Z,6.85
2016-12-09T15:47:44.512Z,6.85
2016-12-09T15:49:15.890Z,6.85
2016-12-09T15:50:42.622Z,6.85
2016-12-09T15:52:15.673Z,6.85
2016-12-09T15:53:48.322Z,6.8
2016-12-09T15:55:22.651Z,6.82
2016-12-09T15:56:34.394Z,6.82
2016-12-09T15:58:01.182Z,6.9
2016-12-09T15:59:32.336Z,6.85
2016-12-09T16:00:44.934Z,6.93
2016-12-09T16:02:15.940Z,7.01
2016-12-09T16:03:48.109Z,7.01
2016-12-09T16:05:19.146Z,6.96
2016-12-09T16:06:50.712Z,6.95
2016-12-09T16:08:22.090Z,6.93
2016-12-09T16:09:52.829Z,6.95
2016-12-09T16:11:25.419Z,6.95
2016-12-09T16:12:37.499Z,6.97
2016-12-09T16:14:08.607Z,6.92
2016-12-09T16:15:39.733Z,7
2016-12-09T16:17:11.653Z,7.03
2016-12-09T16:18:38.715Z,6.9
2016-12-09T16:19:50.613Z,7
2016-12-09T16:21:21.561Z,7
2016-12-09T16:22:52.642Z,6.9
2016-12-09T16:24:23.556Z,6.86
2016-12-09T16:25:54.372Z,6.96
2016-12-09T16:27:25.627Z,6.93
2016-12-09T16:28:37.848Z,7
2016-12-09T16:30:09.333Z,7
2016-12-09T16:31:40.704Z,6.97
2016-12-09T16:33:14.595Z,7
2016-12-09T16:34:46.195Z,7.03
2016-12-09T16:36:17.506Z,7.03
2016-12-09T16:37:49.141Z,7.13
2016-12-09T16:40:28.965Z,7.1
2016-12-09T16:42:00.535Z,7
2016-12-09T16:43:31.812Z,7.01
2016-12-09T16:45:02.974Z,7.11
2016-12-09T16:46:34.154Z,7.11
2016-12-09T16:48:09.623Z,7.11
2016-12-09T16:49:42.041Z,7.14
2016-12-09T16:51:14.353Z,7.26
2016-12-09T16:52:46.052Z,7.29
2016-12-09T16:53:58.345Z,7.29
2016-12-09T16:55:30.075Z,7.51
2016-12-09T16:57:01.118Z,7.33
2016-12-09T16:58:32.830Z,7.46
2016-12-09T17:00:04.387Z,7.41
2016-12-09T17:01:35.729Z,7.4
2016-12-09T17:03:08.948Z,7.39
2016-12-09T17:04:41.238Z,7.33
2016-12-09T17:06:12.221Z,7.26
2016-12-09T17:07:24.165Z,7.25
2016-12-09T17:08:55.701Z,7.14
2016-12-09T17:10:27.616Z,7.11
2016-12-09T17:11:59.156Z,7.1
2016-12-09T17:13:56.839Z,7.01
2016-12-09T17:15:09.096Z,7.04
2016-12-09T17:16:34.813Z,7.03
2016-12-09T17:18:05.737Z,7.03
2016-12-09T17:19:37.439Z,7.03
2016-12-09T17:20:49.954Z,6.96
2016-12-09T17:22:21.250Z,6.89
2016-12-09T17:23:52.862Z,6.85
2016-12-09T17:25:23.805Z,6.89
2016-12-09T17:26:55.090Z,6.78
2016-12-09T17:28:27.404Z,6.7
2016-12-09T17:29:58.853Z,6.71
2016-12-09T17:31:30.690Z,6.77
2016-12-09T17:33:02.808Z,6.64
2016-12-09T17:34:14.804Z,6.64
2016-12-09T17:35:46.062Z,6.8
2016-12-09T17:37:16.964Z,6.7
2016-12-09T17:38:48.284Z,6.85
2016-12-09T17:40:19.343Z,6.85
2016-12-09T17:41:50.424Z,6.75
2016-12-09T17:43:03.353Z,6.83
2016-12-09T17:44:35.373Z,6.86
2016-12-09T17:46:07.023Z,6.8
2016-12-09T17:47:39.952Z,6.8
2016-12-09T17:49:11.933Z,6.75
2016-12-09T17:50:43.429Z,6.8
2016-12-09T17:52:15.281Z,6.77
2016-12-09T17:53:47.478Z,6.75
2016-12-09T17:55:18.890Z,6.8
2016-12-09T17:56:50.015Z,6.85
2016-12-09T17:58:21.841Z,6.82
2016-12-09T17:59:35.100Z,6.78
2016-12-09T18:01:00.955Z,6.83
2016-12-09T18:02:32.771Z,6.93
2016-12-09T18:03:59.551Z,6.95
2016-12-09T18:05:14.001Z,6.87
2016-12-09T18:06:45.827Z,6.95
2016-12-09T18:08:16.835Z,6.96
2016-12-09T18:09:48.048Z,7.04
2016-12-09T18:11:19.388Z,7.03
2016-12-09T18:12:50.679Z,7.15
2016-12-09T18:14:02.470Z,7.14
2016-12-09T18:15:33.408Z,7.25
2016-12-09T18:17:04.382Z,7.25
2016-12-09T18:18:35.398Z,7.23
2016-12-09T18:20:07.011Z,7.15
2016-12-09T18:21:38.596Z,7.14
2016-12-09T18:22:50.334Z,7
2016-12-09T18:24:21.529Z,7.03
2016-12-09T18:25:52.781Z,6.97
2016-12-09T18:27:23.783Z,7.04
2016-12-09T18:28:55.154Z,6.96
2016-12-09T18:30:26.338Z,6.96
2016-12-09T18:31:58.024Z,7
2016-12-09T18:34:36.432Z,7.11
2016-12-09T18:36:08.394Z,7.22
2016-12-09T18:37:41.684Z,7.28
2016-12-09T18:39:42.867Z,7.4
2016-12-09T18:40:54.951Z,7.33
2016-12-09T18:42:20.904Z,7.4
2016-12-09T18:43:53.168Z,7.39
2016-12-09T18:45:24.367Z,7.43
2016-12-09T18:46:55.511Z,7.43
2016-12-09T18:48:08.056Z,7.39
2016-12-09T18:49:40.434Z,7.37
2016-12-09T18:51:12.056Z,7.37
2016-12-09T18:52:44.161Z,7.41
2016-12-09T18:54:15.258Z,7.5
2016-12-09T18:55:46.658Z,7.41
2016-12-09T18:57:12.534Z,7.39
2016-12-09T18:58:24.576Z,7.48
2016-12-09T18:59:55.979Z,7.47
2016-12-09T19:01:27.431Z,7.44
2016-12-09T19:02:58.358Z,7.48
2016-12-09T19:04:29.467Z,7.44
2016-12-09T19:05:42.031Z,7.5
2016-12-09T19:07:13.091Z,7.47
2016-12-09T19:08:44.285Z,7.56
2016-12-09T19:10:10.649Z,7.46
2016-12-09T19:11:22.825Z,7.47
2016-12-09T19:12:54.204Z,7.36
2016-12-09T19:14:25.609Z,7.31
2016-12-09T19:15:56.830Z,7.37
2016-12-09T19:17:29.080Z,7.46
2016-12-09T19:19:00.214Z,7.48
2016-12-09T19:20:32.320Z,7.47
2016-12-09T19:22:03.721Z,7.4
2016-12-09T19:23:16.468Z,7.36
2016-12-09T19:24:47.519Z,7.39
2016-12-09T19:26:13.876Z,7.31
2016-12-09T19:27:44.927Z,7.41
2016-12-09T19:28:57.035Z,7.36
2016-12-09T19:30:28.366Z,7.36
2016-12-09T19:32:00.107Z,7.36
2016-12-09T19:33:31.067Z,7.44
2016-12-09T19:35:02.125Z,7.48
2016-12-09T19:36:35.641Z,7.5
2016-12-09T19:38:01.481Z,7.51
2016-12-09T19:39:13.211Z,7.44
2016-12-09T19:40:44.116Z,7.41
2016-12-09T19:42:14.996Z,7.5
2016-12-09T19:43:46.274Z,7.5
2016-12-09T19:44:58.190Z,7.5
2016-12-09T19:46:29.426Z,7.58
2016-12-09T19:48:00.941Z,7.58
2016-12-09T19:49:32.038Z,7.59
2016-12-09T19:51:03.466Z,7.64
2016-12-09T19:52:36.361Z,7.61
2016-12-09T19:54:09.100Z,7.58